ADDS METAR Data INFO
IDs: Format: Raw Decoded Include TAF

Data at: 0408 UTC 11 Dec 2017

KMYV 110353Z AUTO 00000KT 8SM CLR 05/02 A3024 RMK AO2 SLP244 T00500022
KMYV 110253Z AUTO 00000KT 10SM CLR 06/03 A3024 RMK AO2 SLP243 T00610028 55001
KMYV 110153Z AUTO 00000KT 10SM CLR 07/02 A3023 RMK AO2 SLP242 T00670022
KMYV 110053Z AUTO 00000KT 10SM CLR 13/04 A3024 RMK AO2 SLP244 T01330039
KMYV 102353Z AUTO 00000KT 10SM CLR 17/02 A3024 RMK AO2 SLP243 T01670022 10178 20094 56016
KMYV 102253Z AUTO 33004KT 10SM CLR 17/02 A3025 RMK AO2 SLP245 T01720022
KMYV 102153Z AUTO 29004KT 10SM CLR 17/04 A3026 RMK AO2 SLP250 T01670039
KMYV 102053Z AUTO 29005KT 10SM CLR 16/04 A3029 RMK AO2 SLP259 T01610039 58023
KMYV 101953Z AUTO 00000KT 10SM CLR 15/07 A3032 RMK AO2 SLP270 T01500067
KMYV 101853Z AUTO 00000KT 10SM CLR 12/07 A3035 RMK AO2 SLP280 T01220067
KMYV 101753Z AUTO 00000KT 9SM CLR 09/08 A3035 RMK AO2 SLP283 T00940078 10094 21011 53011
KMYV 101653Z AUTO 00000KT 9SM CLR 06/04 A3034 RMK AO2 SLP277 T00610044
KMYV 101553Z AUTO VRB03KT 7SM CLR 01/M01 A3033 RMK AO2 SLP274 T00111006
KMYV 101453Z AUTO 00000KT 7SM CLR M01/M02 A3032 RMK AO2 SLP272 T10061022 53000
KMYV 101353Z AUTO 00000KT 8SM CLR 01/M01 A3032 RMK AO2 SLP270 T00061011
KMYV 101323Z AUTO 03003KT 5SM BR FEW003 01/M01 A3031 RMK AO2 T00061011
KMYV 101253Z AUTO 00000KT 6SM BR CLR 01/M02 A3031 RMK AO2 SLP269 T00061017
KMYV 101153Z AUTO 05003KT 9SM CLR 00/M01 A3032 RMK AO2 SLP272 T00001006 10033 20000 50000
KMYV 101053Z AUTO 09003KT 7SM CLR 02/00 A3033 RMK AO2 SLP273 T00170000
KMYV 100953Z AUTO 00000KT 5SM BR CLR 01/M01 A3033 RMK AO2 SLP273 T00111006
KMYV 100916Z AUTO 00000KT 6SM BR CLR 01/00 A3032 RMK AO2 T00110000
KMYV 100907Z AUTO 00000KT 2 1/2SM BR CLR 01/00 A3032 RMK AO2 T00110000
KMYV 100853Z AUTO 00000KT 4SM BR CLR 02/00 A3032 RMK AO2 SLP270 T00170000 51002
KMYV 100849Z AUTO 00000KT 4SM BR CLR 02/01 A3032 RMK AO2
KMYV 100842Z AUTO 00000KT 2 1/2SM BR CLR 02/01 A3032 RMK AO2 VIS 1 3/4V5 T00220006
KMYV 100753Z AUTO 00000KT 5SM BR CLR 02/00 A3032 RMK AO2 SLP272 T00170000 401721006
KMYV 100745Z AUTO 00000KT 1 1/2SM BR CLR 02/01 A3032 RMK AO2 T00220011
KMYV 100739Z AUTO 00000KT 3/4SM BR CLR 02/01 A3032 RMK AO2 T00170006
KMYV 100731Z AUTO 00000KT 1 3/4SM BR CLR 03/01 A3032 RMK AO2 VIS 1/2V4 T00280011
KMYV 100653Z AUTO 00000KT 6SM BR CLR 03/01 A3031 RMK AO2 SLP269 T00280006
KMYV 100553Z AUTO 00000KT 6SM BR CLR 03/02 A3031 RMK AO2 SLP267 T00330022 10156 20033 53001
KMYV 100453Z AUTO 00000KT 6SM BR CLR 04/03 A3030 RMK AO2 SLP264 T00440028
KMYV 100353Z AUTO 00000KT 6SM BR CLR 04/03 A3030 RMK AO2 SLP265 T00440028
KMYV 100253Z AUTO 00000KT 10SM CLR 07/04 A3030 RMK AO2 SLP265 T00670044 53005
KMYV 100153Z AUTO 00000KT 10SM CLR 09/06 A3030 RMK AO2 SLP263 T00940056
KMYV 100053Z AUTO 00000KT 10SM CLR 12/06 A3029 RMK AO2 SLP261 T01220061
KMYV 092353Z AUTO 11003KT 10SM CLR 16/06 A3029 RMK AO2 SLP260 T01560061 10172 20089 56013
KMYV 092253Z AUTO 00000KT 10SM CLR 17/04 A3029 RMK AO2 SLP261 T01720039
KMYV 092153Z AUTO 33004KT 10SM CLR 16/05 A3030 RMK AO2 SLP265 T01610050
KMYV 092053Z AUTO 34004KT 10SM CLR 15/06 A3033 RMK AO2 SLP273 T01500056 58020
KMYV 091953Z AUTO 32005KT 9SM CLR 14/05 A3035 RMK AO2 SLP281 T01390050
KMYV 091853Z AUTO 27005KT 8SM CLR 11/06 A3037 RMK AO2 SLP289 T01110061
KMYV 091753Z AUTO 34003KT 10SM CLR 09/06 A3039 RMK AO2 SLP294 T00890061 10089 21006 51006
KMYV 091653Z AUTO 00000KT 5SM BR CLR 06/04 A3039 RMK AO2 SLP294 T00560039
KMYV 091634Z AUTO 00000KT 4SM BR CLR 04/03 A3039 RMK AO2 T00440028
KMYV 091624Z AUTO 00000KT 2 1/2SM BR CLR 03/02 A3039 RMK AO2 T00330022